DEINS ELLX-EDDF
Flight info
| Callsign | DEINS |
|---|---|
| Flight time | 0h 33m |
| Altitude | 23000 |
| Route | ASMOX Y891 LULAT Y890 KULZO T847 IMCOM IMCOM1D |
| Aircraft | SF50/L-SDGRWY/L |
Departure
| Time | 2026-04-14 16:06 |
|---|---|
| Airport | Luxembourg-Findel International Airport (ELLX) |
Arrival
| Time | 2026-04-14 16:39 |
|---|---|
| Airport | Frankfurt Main Airport (EDDF) |
| Time | Latitude | Longitude | Altitude | Speed | Heading |
|---|---|---|---|---|---|
| 2026-04-14 15:58 | 49.63005 | 6.21151 | 1190 ft | 0 kts | 65° |
| 2026-04-14 16:00 | 49.63005 | 6.21150 | 1190 ft | 0 kts | 65° |
| 2026-04-14 16:03 | 49.63004 | 6.21155 | 1190 ft | 3 kts | 156° |
| 2026-04-14 16:03 | 49.62973 | 6.21147 | 1190 ft | 7 kts | 184° |
| 2026-04-14 16:03 | 49.62919 | 6.21136 | 1190 ft | 10 kts | 230° |
| 2026-04-14 16:04 | 49.62879 | 6.21012 | 1190 ft | 16 kts | 246° |
| 2026-04-14 16:04 | 49.62825 | 6.20831 | 1190 ft | 17 kts | 244° |
| 2026-04-14 16:04 | 49.62749 | 6.20743 | 1191 ft | 15 kts | 198° |
| 2026-04-14 16:04 | 49.62656 | 6.20807 | 1196 ft | 17 kts | 112° |
| 2026-04-14 16:05 | 49.62650 | 6.20987 | 1206 ft | 19 kts | 90° |
| 2026-04-14 16:05 | 49.62701 | 6.21288 | 1212 ft | 41 kts | 49° |
| 2026-04-14 16:05 | 49.62904 | 6.21843 | 1211 ft | 92 kts | 59° |
| 2026-04-14 16:05 | 49.63291 | 6.22919 | 1529 ft | 130 kts | 62° |
| 2026-04-14 16:06 | 49.63761 | 6.24218 | 2059 ft | 147 kts | 62° |
| 2026-04-14 16:06 | 49.64248 | 6.25682 | 2594 ft | 159 kts | 64° |
| 2026-04-14 16:06 | 49.64756 | 6.27253 | 3058 ft | 168 kts | 60° |
| 2026-04-14 16:06 | 49.65417 | 6.28760 | 3589 ft | 171 kts | 56° |
| 2026-04-14 16:07 | 49.66085 | 6.30271 | 4110 ft | 170 kts | 56° |
| 2026-04-14 16:07 | 49.67050 | 6.31271 | 4613 ft | 175 kts | 10° |
| 2026-04-14 16:07 | 49.68287 | 6.30919 | 5100 ft | 198 kts | 344° |
| 2026-04-14 16:07 | 49.69661 | 6.30568 | 5619 ft | 195 kts | 360° |
| 2026-04-14 16:08 | 49.71056 | 6.30824 | 6139 ft | 206 kts | 11° |
| 2026-04-14 16:08 | 49.72483 | 6.31252 | 6666 ft | 211 kts | 10° |
| 2026-04-14 16:08 | 49.73927 | 6.31635 | 7302 ft | 212 kts | 9° |
| 2026-04-14 16:08 | 49.75384 | 6.32007 | 7955 ft | 213 kts | 9° |
| 2026-04-14 16:09 | 49.76851 | 6.32389 | 8619 ft | 214 kts | 9° |
| 2026-04-14 16:09 | 49.78320 | 6.32772 | 9297 ft | 214 kts | 9° |
| 2026-04-14 16:09 | 49.79792 | 6.33155 | 9999 ft | 214 kts | 9° |
| 2026-04-14 16:09 | 49.81238 | 6.33530 | 10593 ft | 215 kts | 9° |
| 2026-04-14 16:10 | 49.82719 | 6.33914 | 11150 ft | 217 kts | 9° |
| 2026-04-14 16:10 | 49.84207 | 6.34330 | 11715 ft | 217 kts | 14° |
| 2026-04-14 16:10 | 49.85522 | 6.35469 | 12287 ft | 218 kts | 36° |
| 2026-04-14 16:10 | 49.86710 | 6.36929 | 12868 ft | 218 kts | 37° |
| 2026-04-14 16:11 | 49.87931 | 6.38334 | 13416 ft | 219 kts | 33° |
| 2026-04-14 16:11 | 49.89205 | 6.39633 | 13970 ft | 219 kts | 31° |
| 2026-04-14 16:11 | 49.90479 | 6.40936 | 14470 ft | 219 kts | 32° |
| 2026-04-14 16:11 | 49.91731 | 6.42237 | 14968 ft | 219 kts | 32° |
| 2026-04-14 16:12 | 49.92995 | 6.43553 | 15480 ft | 219 kts | 32° |
| 2026-04-14 16:12 | 49.94260 | 6.44869 | 16002 ft | 218 kts | 32° |
| 2026-04-14 16:12 | 49.95518 | 6.46179 | 16533 ft | 217 kts | 32° |
| 2026-04-14 16:12 | 49.96771 | 6.47480 | 17072 ft | 216 kts | 32° |
| 2026-04-14 16:13 | 49.98022 | 6.48783 | 17622 ft | 217 kts | 32° |
| 2026-04-14 16:13 | 49.99276 | 6.50089 | 18183 ft | 217 kts | 31° |
| 2026-04-14 16:13 | 50.00531 | 6.51399 | 18713 ft | 217 kts | 32° |
| 2026-04-14 16:13 | 50.01782 | 6.52703 | 19211 ft | 216 kts | 31° |
| 2026-04-14 16:14 | 50.02932 | 6.54271 | 19386 ft | 234 kts | 48° |
| 2026-04-14 16:14 | 50.03690 | 6.56662 | 19271 ft | 260 kts | 71° |
| 2026-04-14 16:14 | 50.03973 | 6.59526 | 18964 ft | 283 kts | 82° |
| 2026-04-14 16:14 | 50.04146 | 6.62690 | 18647 ft | 303 kts | 83° |
| 2026-04-14 16:15 | 50.04362 | 6.66036 | 18305 ft | 317 kts | 81° |
| 2026-04-14 16:15 | 50.04623 | 6.69502 | 17933 ft | 328 kts | 81° |
| 2026-04-14 16:15 | 50.04882 | 6.73055 | 17567 ft | 325 kts | 82° |
| 2026-04-14 16:15 | 50.05108 | 6.76322 | 17221 ft | 284 kts | 82° |
| 2026-04-14 16:16 | 50.05304 | 6.79198 | 16940 ft | 260 kts | 82° |
| 2026-04-14 16:16 | 50.05513 | 6.82117 | 16675 ft | 281 kts | 82° |
| 2026-04-14 16:16 | 50.05731 | 6.85209 | 16427 ft | 295 kts | 82° |
| 2026-04-14 16:16 | 50.05949 | 6.88443 | 16184 ft | 306 kts | 82° |
| 2026-04-14 16:17 | 50.06173 | 6.91757 | 15944 ft | 309 kts | 82° |
| 2026-04-14 16:17 | 50.06399 | 6.95087 | 15694 ft | 310 kts | 82° |
| 2026-04-14 16:17 | 50.06625 | 6.98418 | 15447 ft | 309 kts | 82° |
| 2026-04-14 16:17 | 50.06846 | 7.01695 | 15204 ft | 308 kts | 82° |
| 2026-04-14 16:18 | 50.07068 | 7.05003 | 14959 ft | 307 kts | 82° |
| 2026-04-14 16:18 | 50.07288 | 7.08298 | 14717 ft | 305 kts | 82° |
| 2026-04-14 16:18 | 50.07507 | 7.11570 | 14475 ft | 303 kts | 82° |
| 2026-04-14 16:18 | 50.07724 | 7.14829 | 14238 ft | 302 kts | 82° |
| 2026-04-14 16:19 | 50.07938 | 7.18074 | 13998 ft | 301 kts | 82° |
| 2026-04-14 16:19 | 50.08151 | 7.21314 | 13734 ft | 300 kts | 83° |
| 2026-04-14 16:19 | 50.08362 | 7.24546 | 13489 ft | 299 kts | 83° |
| 2026-04-14 16:19 | 50.08570 | 7.27765 | 13225 ft | 299 kts | 82° |
| 2026-04-14 16:20 | 50.08780 | 7.30974 | 12963 ft | 297 kts | 82° |
| 2026-04-14 16:20 | 50.08985 | 7.34156 | 12708 ft | 294 kts | 82° |
| 2026-04-14 16:20 | 50.09185 | 7.37268 | 12451 ft | 292 kts | 83° |
| 2026-04-14 16:20 | 50.09385 | 7.40411 | 12194 ft | 292 kts | 83° |
| 2026-04-14 16:21 | 50.09586 | 7.43558 | 11940 ft | 292 kts | 84° |
| 2026-04-14 16:21 | 50.09786 | 7.46694 | 11717 ft | 291 kts | 84° |
| 2026-04-14 16:21 | 50.09985 | 7.49831 | 11473 ft | 291 kts | 84° |
| 2026-04-14 16:21 | 50.10181 | 7.52961 | 11189 ft | 290 kts | 84° |
| 2026-04-14 16:22 | 50.10378 | 7.56081 | 10917 ft | 289 kts | 84° |
| 2026-04-14 16:22 | 50.10572 | 7.59198 | 10647 ft | 290 kts | 85° |
| 2026-04-14 16:22 | 50.10764 | 7.62315 | 10382 ft | 289 kts | 85° |
| 2026-04-14 16:22 | 50.10956 | 7.65415 | 10198 ft | 286 kts | 85° |
| 2026-04-14 16:23 | 50.11005 | 7.68466 | 10185 ft | 286 kts | 97° |
| 2026-04-14 16:23 | 50.10549 | 7.71458 | 10180 ft | 283 kts | 109° |
| 2026-04-14 16:23 | 50.09961 | 7.74385 | 10183 ft | 283 kts | 108° |
| 2026-04-14 16:23 | 50.09394 | 7.77348 | 9959 ft | 290 kts | 108° |
| 2026-04-14 16:24 | 50.08827 | 7.80305 | 9427 ft | 282 kts | 108° |
| 2026-04-14 16:24 | 50.08290 | 7.83205 | 9139 ft | 276 kts | 103° |
| 2026-04-14 16:24 | 50.08184 | 7.86177 | 8864 ft | 275 kts | 86° |
| 2026-04-14 16:24 | 50.08576 | 7.89058 | 8594 ft | 272 kts | 70° |
| 2026-04-14 16:25 | 50.09260 | 7.91786 | 8338 ft | 270 kts | 68° |
| 2026-04-14 16:25 | 50.09923 | 7.94497 | 8196 ft | 266 kts | 68° |
| 2026-04-14 16:25 | 50.10583 | 7.97228 | 8197 ft | 271 kts | 68° |
| 2026-04-14 16:25 | 50.11256 | 7.99983 | 8198 ft | 273 kts | 68° |
| 2026-04-14 16:26 | 50.11935 | 8.02752 | 8198 ft | 274 kts | 69° |
| 2026-04-14 16:26 | 50.12388 | 8.04602 | 8070 ft | 278 kts | 69° |
| 2026-04-14 16:26 | 50.13051 | 8.07326 | 7681 ft | 263 kts | 68° |
| 2026-04-14 16:26 | 50.13688 | 8.09947 | 7255 ft | 255 kts | 68° |
| 2026-04-14 16:27 | 50.14519 | 8.13357 | 6745 ft | 253 kts | 68° |
| 2026-04-14 16:27 | 50.15137 | 8.15906 | 6364 ft | 250 kts | 68° |
| 2026-04-14 16:27 | 50.15750 | 8.18438 | 5974 ft | 249 kts | 68° |
| 2026-04-14 16:27 | 50.16365 | 8.20968 | 5586 ft | 249 kts | 68° |
| 2026-04-14 16:28 | 50.16711 | 8.22662 | 5322 ft | 248 kts | 77° |
| 2026-04-14 16:28 | 50.16459 | 8.25296 | 5004 ft | 250 kts | 115° |
| 2026-04-14 16:28 | 50.15193 | 8.27145 | 5000 ft | 259 kts | 152° |
| 2026-04-14 16:28 | 50.13480 | 8.28082 | 4997 ft | 262 kts | 162° |
| 2026-04-14 16:29 | 50.11713 | 8.28822 | 5007 ft | 263 kts | 168° |
| 2026-04-14 16:29 | 50.09905 | 8.28485 | 4997 ft | 265 kts | 203° |
| 2026-04-14 16:29 | 50.08560 | 8.26601 | 4996 ft | 261 kts | 240° |
| 2026-04-14 16:29 | 50.07850 | 8.24001 | 5003 ft | 260 kts | 252° |
| 2026-04-14 16:30 | 50.07274 | 8.21339 | 5004 ft | 258 kts | 253° |
| 2026-04-14 16:30 | 50.06721 | 8.18707 | 5005 ft | 260 kts | 253° |
| 2026-04-14 16:30 | 50.06156 | 8.16043 | 5006 ft | 259 kts | 253° |
| 2026-04-14 16:30 | 50.05586 | 8.13371 | 5004 ft | 260 kts | 253° |
| 2026-04-14 16:31 | 50.05015 | 8.10699 | 5003 ft | 261 kts | 253° |
| 2026-04-14 16:31 | 50.04447 | 8.08025 | 5005 ft | 259 kts | 254° |
| 2026-04-14 16:31 | 50.03834 | 8.05505 | 4997 ft | 247 kts | 241° |
| 2026-04-14 16:31 | 50.02565 | 8.03813 | 4996 ft | 240 kts | 202° |
| 2026-04-14 16:32 | 50.00945 | 8.03601 | 4658 ft | 232 kts | 169° |
| 2026-04-14 16:32 | 49.99419 | 8.04319 | 4313 ft | 229 kts | 150° |
| 2026-04-14 16:32 | 49.98403 | 8.06108 | 4011 ft | 219 kts | 111° |
| 2026-04-14 16:32 | 49.97971 | 8.08323 | 4010 ft | 218 kts | 102° |
| 2026-04-14 16:33 | 49.97566 | 8.10600 | 4014 ft | 220 kts | 103° |
| 2026-04-14 16:33 | 49.97156 | 8.12891 | 4014 ft | 220 kts | 103° |
| 2026-04-14 16:33 | 49.96740 | 8.15180 | 4015 ft | 220 kts | 103° |
| 2026-04-14 16:33 | 49.96328 | 8.17463 | 4012 ft | 219 kts | 104° |
| 2026-04-14 16:34 | 49.95921 | 8.19755 | 4010 ft | 220 kts | 103° |
| 2026-04-14 16:34 | 49.95513 | 8.21988 | 4016 ft | 205 kts | 104° |
| 2026-04-14 16:34 | 49.95182 | 8.24015 | 3950 ft | 183 kts | 90° |
| 2026-04-14 16:34 | 49.95507 | 8.25880 | 3715 ft | 180 kts | 60° |
| 2026-04-14 16:35 | 49.96101 | 8.27574 | 3488 ft | 179 kts | 58° |
| 2026-04-14 16:35 | 49.96723 | 8.29237 | 3358 ft | 175 kts | 58° |
| 2026-04-14 16:35 | 49.97294 | 8.30797 | 3424 ft | 163 kts | 61° |
| 2026-04-14 16:35 | 49.97800 | 8.32409 | 3240 ft | 169 kts | 63° |
| 2026-04-14 16:36 | 49.98239 | 8.34186 | 2848 ft | 183 kts | 71° |
| 2026-04-14 16:36 | 49.98591 | 8.36091 | 2665 ft | 181 kts | 72° |
| 2026-04-14 16:36 | 49.98998 | 8.37902 | 2535 ft | 178 kts | 68° |
| 2026-04-14 16:36 | 49.99421 | 8.39723 | 2360 ft | 178 kts | 69° |
| 2026-04-14 16:37 | 49.99846 | 8.41507 | 2105 ft | 175 kts | 68° |
| 2026-04-14 16:37 | 50.00296 | 8.43234 | 1846 ft | 166 kts | 65° |
| 2026-04-14 16:37 | 50.00724 | 8.44854 | 1604 ft | 161 kts | 67° |
| 2026-04-14 16:37 | 50.01097 | 8.46501 | 1334 ft | 169 kts | 69° |
| 2026-04-14 16:38 | 50.01502 | 8.48307 | 1096 ft | 174 kts | 69° |
| 2026-04-14 16:38 | 50.01901 | 8.49969 | 821 ft | 145 kts | 65° |
| 2026-04-14 16:38 | 50.02188 | 8.51170 | 720 ft | 94 kts | 72° |
| 2026-04-14 16:38 | 50.02439 | 8.52102 | 557 ft | 85 kts | 67° |
| 2026-04-14 16:39 | 50.02618 | 8.52882 | 417 ft | 70 kts | 65° |
| 2026-04-14 16:39 | 50.02821 | 8.53692 | 362 ft | 77 kts | 66° |
| 2026-04-14 16:39 | 50.02980 | 8.54349 | 341 ft | 55 kts | 70° |
| 2026-04-14 16:39 | 50.03093 | 8.54814 | 350 ft | 40 kts | 70° |
| 2026-04-14 16:40 | 50.03180 | 8.55188 | 350 ft | 34 kts | 70° |
| 2026-04-14 16:40 | 50.03243 | 8.55542 | 347 ft | 32 kts | 84° |
| 2026-04-14 16:40 | 50.03231 | 8.55847 | 353 ft | 19 kts | 102° |
| 2026-04-14 16:40 | 50.03153 | 8.55879 | 356 ft | 11 kts | 234° |
| 2026-04-14 16:41 | 50.03128 | 8.55783 | 357 ft | 9 kts | 250° |
| 2026-04-14 16:41 | 50.03107 | 8.55699 | 356 ft | 12 kts | 249° |
| 2026-04-14 16:41 | 50.03039 | 8.55415 | 358 ft | 32 kts | 250° |
| 2026-04-14 16:41 | 50.02973 | 8.55140 | 361 ft | 23 kts | 250° |
| 2026-04-14 16:42 | 50.02927 | 8.54927 | 355 ft | 19 kts | 246° |
| 2026-04-14 16:42 | 50.02883 | 8.54759 | 357 ft | 15 kts | 249° |
| 2026-04-14 16:42 | 50.02851 | 8.54627 | 355 ft | 11 kts | 250° |
| 2026-04-14 16:42 | 50.02825 | 8.54514 | 355 ft | 20 kts | 252° |
| 2026-04-14 16:43 | 50.02768 | 8.54276 | 355 ft | 24 kts | 250° |
| 2026-04-14 16:43 | 50.02716 | 8.54049 | 353 ft | 20 kts | 250° |
| 2026-04-14 16:43 | 50.02670 | 8.53867 | 357 ft | 16 kts | 250° |
| 2026-04-14 16:43 | 50.02631 | 8.53728 | 359 ft | 12 kts | 226° |
| 2026-04-14 16:44 | 50.02574 | 8.53660 | 358 ft | 16 kts | 216° |
| 2026-04-14 16:44 | 50.02495 | 8.53488 | 354 ft | 16 kts | 249° |
| 2026-04-14 16:44 | 50.02473 | 8.53389 | 354 ft | 13 kts | 252° |
| 2026-04-14 16:45 | 50.02368 | 8.52947 | 360 ft | 13 kts | 246° |
| 2026-04-14 16:45 | 50.02332 | 8.52848 | 356 ft | 8 kts | 217° |
| 2026-04-14 16:45 | 50.02308 | 8.52835 | 356 ft | 1 kts | 184° |
| 2026-04-14 16:45 | 50.02279 | 8.52833 | 356 ft | 7 kts | 181° |
| 2026-04-14 16:46 | 50.02219 | 8.52833 | 359 ft | 15 kts | 180° |
| 2026-04-14 16:46 | 50.02153 | 8.52848 | 361 ft | 7 kts | 123° |
| 2026-04-14 16:46 | 50.02150 | 8.52929 | 355 ft | 11 kts | 88° |
| 2026-04-14 16:46 | 50.02157 | 8.53055 | 358 ft | 10 kts | 55° |
| 2026-04-14 16:47 | 50.02167 | 8.53071 | 357 ft | 0 kts | 39° |
| 2026-04-14 16:47 | 50.02165 | 8.53091 | 355 ft | 6 kts | 108° |
| 2026-04-14 16:47 | 50.02165 | 8.53135 | 355 ft | 2 kts | 72° |
| 2026-04-14 16:47 | 50.02172 | 8.53164 | 358 ft | 4 kts | 69° |
| 2026-04-14 16:48 | 50.02190 | 8.53184 | 358 ft | 3 kts | 335° |
| 2026-04-14 16:48 | 50.02193 | 8.53182 | 357 ft | 0 kts | 312° |